createdAt,value
2022-08-23T00:02:27.014Z,49.43
2022-08-23T00:05:07.550Z,49.40
2022-08-23T00:07:43.715Z,49.63
2022-08-23T00:10:14.729Z,49.66
2022-08-23T00:12:43.590Z,49.85
2022-08-23T00:15:15.072Z,49.82
2022-08-23T00:17:42.288Z,50.20
2022-08-23T00:20:14.251Z,49.96
2022-08-23T00:22:41.116Z,50.19
2022-08-23T00:25:13.150Z,50.22
2022-08-23T00:27:40.785Z,50.16
2022-08-23T00:30:10.787Z,49.99
2022-08-23T00:32:39.621Z,50.02
2022-08-23T00:35:09.391Z,50.21
2022-08-23T00:37:36.108Z,50.39
2022-08-23T00:40:06.473Z,50.27
2022-08-23T00:43:03.247Z,50.35
2022-08-23T00:46:13.324Z,50.96
2022-08-23T00:48:40.971Z,50.93
2022-08-23T00:51:21.345Z,50.65
2022-08-23T00:53:55.431Z,50.63
2022-08-23T00:56:25.398Z,50.52
2022-08-23T00:58:54.384Z,50.57
2022-08-23T01:01:23.995Z,50.44
2022-08-23T01:03:59.214Z,50.47
2022-08-23T01:06:49.570Z,50.56
2022-08-23T01:09:21.128Z,50.79
2022-08-23T01:11:59.941Z,50.81
2022-08-23T01:14:48.980Z,50.87
2022-08-23T01:17:25.230Z,51.24
2022-08-23T01:20:04.679Z,51.11
2022-08-23T01:23:08.544Z,51.56
2022-08-23T01:25:37.180Z,51.60
2022-08-23T01:28:04.652Z,51.49
2022-08-23T01:30:33.481Z,51.50
2022-08-23T01:33:06.559Z,51.70
2022-08-23T01:35:39.863Z,51.47
2022-08-23T01:38:08.542Z,51.58
2022-08-23T01:40:37.383Z,51.58
2022-08-23T01:43:07.257Z,51.73
2022-08-23T01:45:34.101Z,51.75
2022-08-23T01:48:02.616Z,51.62
2022-08-23T01:50:30.116Z,51.45
2022-08-23T01:52:57.701Z,51.57
2022-08-23T01:55:25.727Z,51.79
2022-08-23T01:57:56.957Z,51.75
2022-08-23T02:00:30.398Z,52.25
2022-08-23T02:02:59.264Z,52.40
2022-08-23T02:05:27.138Z,52.45
2022-08-23T02:07:54.018Z,52.46
2022-08-23T02:10:21.423Z,52.23
2022-08-23T02:12:47.983Z,52.34
2022-08-23T02:15:16.223Z,52.30
2022-08-23T02:17:44.304Z,52.68
2022-08-23T02:20:12.107Z,52.65
2022-08-23T02:22:39.518Z,53.04
2022-08-23T02:25:07.447Z,53.08
2022-08-23T02:27:34.046Z,53.32
2022-08-23T02:30:00.631Z,53.30
2022-08-23T02:32:28.728Z,53.20
2022-08-23T02:35:04.993Z,53.33
2022-08-23T02:37:33.354Z,53.89
2022-08-23T02:39:59.931Z,54.00
2022-08-23T02:42:26.470Z,54.12
2022-08-23T02:44:53.060Z,54.28
2022-08-23T02:47:19.647Z,54.50
2022-08-23T02:49:46.509Z,54.55
2022-08-23T02:52:13.072Z,54.60
2022-08-23T02:54:39.681Z,54.97
2022-08-23T02:57:06.519Z,54.87
2022-08-23T02:59:33.666Z,54.81
2022-08-23T03:02:00.278Z,54.72
2022-08-23T03:04:27.439Z,54.80
2022-08-23T03:06:54.093Z,54.73
2022-08-23T03:09:20.726Z,54.71
2022-08-23T03:11:49.896Z,54.87
2022-08-23T03:14:16.862Z,54.88
2022-08-23T03:16:44.786Z,54.76
2022-08-23T03:19:11.377Z,54.71
2022-08-23T03:21:38.543Z,54.40
2022-08-23T03:24:10.012Z,54.47
2022-08-23T03:26:37.495Z,54.48
2022-08-23T03:29:04.466Z,55.03
2022-08-23T03:31:31.289Z,55.17
2022-08-23T03:33:58.124Z,55.26
2022-08-23T03:36:28.077Z,55.45
2022-08-23T03:38:55.602Z,55.24
2022-08-23T03:41:22.279Z,55.67
2022-08-23T03:43:48.903Z,55.44
2022-08-23T03:46:22.881Z,55.39
2022-08-23T03:48:53.196Z,55.73
2022-08-23T03:51:22.255Z,56.09
2022-08-23T03:53:49.791Z,56.24
2022-08-23T03:56:37.713Z,56.24
2022-08-23T03:59:09.075Z,56.40
2022-08-23T04:01:36.512Z,56.52
2022-08-23T04:04:03.766Z,56.83
2022-08-23T04:06:32.861Z,56.69
2022-08-23T04:09:00.555Z,56.78
2022-08-23T04:11:27.637Z,56.70
2022-08-23T04:13:54.289Z,56.81
2022-08-23T04:16:21.268Z,56.98
2022-08-23T04:18:49.531Z,57.50
2022-08-23T04:21:22.377Z,57.78
2022-08-23T04:23:49.506Z,57.70
2022-08-23T04:26:16.091Z,58.13
2022-08-23T04:28:43.295Z,58.25
2022-08-23T04:31:09.881Z,57.96
2022-08-23T04:33:40.268Z,58.06
2022-08-23T04:36:07.930Z,58.23
2022-08-23T04:38:34.448Z,58.34
2022-08-23T04:41:19.569Z,58.69
2022-08-23T04:43:46.176Z,58.68
2022-08-23T04:46:16.983Z,58.76
2022-08-23T04:48:46.287Z,58.78
2022-08-23T04:51:13.191Z,58.78
2022-08-23T04:53:40.812Z,58.78
2022-08-23T04:56:08.803Z,58.22
2022-08-23T04:58:37.139Z,58.60
2022-08-23T05:01:08.261Z,58.30
2022-08-23T05:03:35.440Z,58.40
2022-08-23T05:06:03.804Z,58.01
2022-08-23T05:08:31.406Z,58.00
2022-08-23T05:11:04.339Z,58.26
2022-08-23T05:13:34.793Z,58.38
2022-08-23T05:16:02.587Z,58.27
2022-08-23T05:18:29.300Z,58.24
2022-08-23T05:20:55.896Z,58.45
2022-08-23T05:23:23.590Z,58.30
2022-08-23T05:25:58.702Z,58.28
2022-08-23T05:28:33.251Z,58.93
2022-08-23T05:31:11.526Z,58.79
2022-08-23T05:33:40.486Z,58.73
2022-08-23T05:36:09.379Z,58.90
2022-08-23T05:38:36.551Z,58.90
2022-08-23T05:41:05.292Z,59.32
2022-08-23T05:43:34.478Z,59.20
2022-08-23T05:46:13.189Z,59.35
2022-08-23T05:48:46.780Z,59.57
2022-08-23T05:51:33.355Z,60.04
2022-08-23T05:54:05.644Z,59.73
2022-08-23T05:56:37.328Z,59.76
2022-08-23T05:59:12.358Z,60.00
2022-08-23T06:01:41.171Z,59.88
2022-08-23T06:04:12.395Z,59.47
2022-08-23T06:06:41.536Z,59.39
2022-08-23T06:09:11.603Z,59.45
2022-08-23T06:11:38.247Z,59.56
2022-08-23T06:14:09.250Z,59.18
2022-08-23T06:16:43.603Z,59.40
2022-08-23T06:19:10.934Z,59.21
2022-08-23T06:21:39.867Z,58.80
2022-08-23T06:24:07.197Z,59.25
2022-08-23T06:26:41.364Z,58.63
2022-08-23T06:29:15.636Z,58.33
2022-08-23T06:31:49.628Z,58.41
2022-08-23T06:34:32.210Z,58.63
2022-08-23T06:37:02.744Z,58.41
2022-08-23T06:39:35.449Z,58.23
2022-08-23T06:42:34.804Z,57.77
2022-08-23T06:44:58.730Z,57.30
2022-08-23T06:47:25.468Z,57.13
2022-08-23T06:49:58.336Z,56.68
2022-08-23T06:52:27.445Z,56.31
2022-08-23T06:54:54.648Z,55.71
2022-08-23T06:57:21.421Z,55.35
2022-08-23T06:59:49.906Z,55.44
2022-08-23T07:02:16.758Z,55.05
2022-08-23T07:04:43.433Z,54.87
2022-08-23T07:07:11.954Z,54.49
2022-08-23T07:09:40.901Z,54.23
2022-08-23T07:12:08.052Z,54.04
2022-08-23T07:14:34.976Z,53.94
2022-08-23T07:17:03.575Z,53.71
2022-08-23T07:19:34.789Z,53.41
2022-08-23T07:22:04.103Z,53.03
2022-08-23T07:24:33.649Z,52.79
2022-08-23T07:27:06.862Z,52.39
2022-08-23T07:29:36.198Z,51.97
2022-08-23T07:32:03.939Z,51.70
2022-08-23T07:34:30.543Z,51.77
2022-08-23T07:36:57.104Z,52.05
2022-08-23T07:39:26.325Z,51.99
2022-08-23T07:41:52.945Z,51.27
2022-08-23T07:44:23.506Z,50.74
2022-08-23T07:46:55.115Z,50.50
2022-08-23T07:49:22.946Z,50.24
2022-08-23T07:51:58.665Z,49.96
2022-08-23T07:54:25.705Z,49.64
2022-08-23T07:56:52.294Z,49.56
2022-08-23T07:59:18.845Z,49.35
2022-08-23T08:01:45.566Z,48.84
2022-08-23T08:04:12.500Z,48.63
2022-08-23T08:06:46.092Z,48.38
2022-08-23T08:09:15.176Z,48.26
2022-08-23T08:11:45.321Z,48.49
2022-08-23T08:14:12.757Z,48.13
2022-08-23T08:16:44.814Z,47.57
2022-08-23T08:19:15.721Z,47.28
2022-08-23T08:21:48.012Z,47.50
2022-08-23T08:24:19.258Z,47.26
2022-08-23T08:26:46.856Z,46.95
2022-08-23T08:29:14.100Z,46.66
2022-08-23T08:31:43.908Z,46.68
2022-08-23T08:34:11.927Z,46.83
2022-08-23T08:36:47.967Z,46.36
2022-08-23T08:39:21.812Z,45.69
2022-08-23T08:42:08.992Z,45.27
2022-08-23T08:44:55.512Z,45.19
2022-08-23T08:47:53.332Z,45.11
2022-08-23T08:50:39.486Z,44.89
2022-08-23T08:53:19.102Z,45.04
2022-08-23T08:55:51.763Z,44.98
2022-08-23T08:58:45.484Z,44.91
2022-08-23T09:01:12.313Z,44.43
2022-08-23T09:03:40.359Z,43.92
2022-08-23T09:06:41.478Z,43.64
2022-08-23T09:09:47.166Z,43.66
2022-08-23T09:12:44.943Z,43.01
2022-08-23T09:15:48.960Z,42.23
2022-08-23T09:18:17.275Z,42.58
2022-08-23T09:20:47.817Z,42.25
2022-08-23T09:23:24.072Z,42.11
2022-08-23T09:26:03.751Z,41.63
2022-08-23T09:28:36.437Z,41.53
2022-08-23T09:31:04.371Z,41.69
2022-08-23T09:33:49.199Z,41.20
2022-08-23T09:36:23.412Z,40.66
2022-08-23T09:38:59.779Z,40.97
2022-08-23T09:41:37.125Z,39.73
2022-08-23T09:44:13.341Z,40.31
2022-08-23T09:46:42.816Z,40.00
2022-08-23T09:49:29.803Z,39.22
2022-08-23T09:52:02.078Z,39.79
2022-08-23T09:54:37.148Z,39.43
2022-08-23T09:57:10.201Z,39.62
2022-08-23T09:59:51.609Z,39.25
2022-08-23T10:02:30.358Z,39.03
2022-08-23T10:05:17.467Z,39.45
2022-08-23T10:07:54.997Z,39.04
2022-08-23T10:10:51.118Z,38.57
2022-08-23T10:13:18.114Z,38.02
2022-08-23T10:16:10.281Z,37.94
2022-08-23T10:19:07.859Z,36.75
2022-08-23T10:22:01.001Z,37.38
2022-08-23T10:24:54.662Z,36.20
2022-08-23T10:28:30.884Z,36.19
2022-08-23T10:31:45.394Z,36.27
2022-08-23T10:34:50.415Z,37.04
2022-08-23T10:37:57.256Z,36.39
2022-08-23T10:40:58.955Z,35.97
2022-08-23T10:43:45.580Z,36.68
2022-08-23T10:46:12.985Z,36.66
2022-08-23T10:48:54.414Z,35.62
2022-08-23T10:51:43.291Z,35.51
2022-08-23T10:54:34.409Z,34.96
2022-08-23T10:57:05.302Z,34.91
2022-08-23T10:59:36.847Z,34.92
2022-08-23T11:02:31.491Z,34.53
2022-08-23T11:05:28.002Z,33.62
2022-08-23T11:08:30.326Z,33.84
2022-08-23T11:10:57.143Z,34.54
2022-08-23T11:13:34.958Z,33.66
2022-08-23T11:16:13.907Z,33.34
2022-08-23T11:18:48.695Z,33.06
2022-08-23T11:21:17.930Z,32.85
2022-08-23T11:23:59.673Z,33.18
2022-08-23T11:26:26.063Z,33.23
2022-08-23T11:29:21.243Z,32.45
2022-08-23T11:32:29.929Z,32.43
2022-08-23T11:34:56.819Z,33.09
2022-08-23T11:37:47.257Z,32.85
2022-08-23T11:40:18.136Z,32.58
2022-08-23T11:42:52.711Z,32.38
2022-08-23T11:45:27.548Z,31.77
2022-08-23T11:48:24.739Z,30.81
2022-08-23T11:50:57.516Z,31.71
2022-08-23T11:53:59.184Z,31.18
2022-08-23T11:56:26.658Z,31.01
2022-08-23T11:59:14.038Z,31.50
2022-08-23T12:01:43.710Z,31.81
2022-08-23T12:04:26.450Z,31.03
2022-08-23T12:07:01.538Z,30.42
2022-08-23T12:09:27.990Z,30.97
2022-08-23T12:11:57.436Z,30.60
2022-08-23T12:14:45.307Z,30.44
2022-08-23T12:17:28.708Z,30.91
2022-08-23T12:20:16.429Z,29.92
2022-08-23T12:23:11.451Z,29.34
2022-08-23T12:25:38.137Z,30.35
2022-08-23T12:28:31.968Z,29.64
2022-08-23T12:31:21.853Z,29.38
2022-08-23T12:34:07.514Z,29.88
2022-08-23T12:36:51.966Z,29.91
2022-08-23T12:39:39.562Z,29.63
2022-08-23T12:42:25.831Z,29.41
2022-08-23T12:45:17.207Z,29.38
2022-08-23T12:47:56.825Z,29.83
2022-08-23T12:50:32.911Z,29.58
2022-08-23T12:53:11.432Z,29.41
2022-08-23T12:55:49.889Z,29.16
2022-08-23T12:58:31.522Z,29.68
2022-08-23T13:01:16.619Z,29.32
2022-08-23T13:03:50.555Z,29.53
2022-08-23T13:06:31.413Z,29.04
2022-08-23T13:09:29.436Z,28.31
2022-08-23T13:11:58.948Z,28.81
2022-08-23T13:14:47.711Z,27.92
2022-08-23T13:17:26.502Z,28.56
2022-08-23T13:20:19.886Z,28.86
2022-08-23T13:23:07.213Z,28.08
2022-08-23T13:25:38.931Z,27.81
2022-08-23T13:28:24.108Z,27.52
2022-08-23T13:31:05.691Z,28.00
2022-08-23T13:33:32.520Z,28.15
2022-08-23T13:36:21.724Z,27.46
2022-08-23T13:38:49.403Z,27.78
2022-08-23T13:41:39.067Z,27.24
2022-08-23T13:44:08.933Z,27.42
2022-08-23T13:46:46.031Z,27.48
2022-08-23T13:49:21.819Z,27.48
2022-08-23T13:52:37.574Z,27.26
2022-08-23T13:54:51.041Z,27.75
2022-08-23T13:57:22.188Z,27.49
2022-08-23T13:59:58.851Z,27.21
2022-08-23T14:02:26.039Z,26.98
2022-08-23T14:04:52.765Z,27.03
2022-08-23T14:07:19.815Z,27.20
2022-08-23T14:09:46.539Z,27.34
2022-08-23T14:12:21.287Z,27.52
2022-08-23T14:14:49.150Z,27.73
2022-08-23T14:17:20.573Z,27.79
2022-08-23T14:20:33.014Z,27.41
2022-08-23T14:22:36.142Z,27.30
2022-08-23T14:25:04.332Z,27.85
2022-08-23T14:27:31.286Z,27.67
2022-08-23T14:29:58.446Z,27.92
2022-08-23T14:32:25.563Z,27.82
2022-08-23T14:34:52.244Z,28.00
2022-08-23T14:38:02.944Z,27.94
2022-08-23T14:40:06.498Z,28.53
2022-08-23T14:42:33.129Z,27.87
2022-08-23T14:45:00.139Z,27.53
2022-08-23T14:47:27.161Z,26.57
2022-08-23T14:49:54.295Z,27.13
2022-08-23T14:52:22.316Z,27.27
2022-08-23T14:54:49.754Z,26.96
2022-08-23T14:57:16.861Z,27.03
2022-08-23T14:59:43.419Z,27.05
2022-08-23T15:02:16.186Z,27.09
2022-08-23T15:04:42.689Z,26.88
2022-08-23T15:07:18.652Z,27.21
2022-08-23T15:09:49.078Z,27.20
2022-08-23T15:15:14.397Z,26.56
2022-08-23T15:17:58.553Z,26.44
2022-08-23T15:20:31.094Z,26.29
2022-08-23T15:22:58.599Z,26.51
2022-08-23T15:25:29.030Z,26.61
2022-08-23T15:27:55.975Z,26.71
2022-08-23T15:30:24.512Z,26.30
2022-08-23T15:32:52.527Z,26.47
2022-08-23T15:35:25.743Z,26.87
2022-08-23T15:37:54.637Z,26.56
2022-08-23T15:40:21.812Z,26.87
2022-08-23T15:42:48.719Z,27.17
2022-08-23T15:45:15.374Z,26.92
2022-08-23T15:47:52.586Z,27.69
2022-08-23T15:50:23.633Z,27.37
2022-08-23T15:52:50.738Z,27.83
2022-08-23T15:55:18.086Z,28.35
2022-08-23T15:57:49.622Z,27.87
2022-08-23T16:00:20.614Z,28.09
2022-08-23T16:03:18.212Z,27.92
2022-08-23T16:05:37.043Z,28.56
2022-08-23T16:08:05.578Z,28.37
2022-08-23T16:10:32.288Z,28.81
2022-08-23T16:12:59.118Z,28.72
2022-08-23T16:15:25.671Z,29.03
2022-08-23T16:17:52.651Z,29.08
2022-08-23T16:20:20.169Z,29.07
2022-08-23T16:22:46.660Z,28.76
2022-08-23T16:25:13.165Z,28.78
2022-08-23T16:27:39.707Z,28.73
2022-08-23T16:30:08.086Z,28.53
2022-08-23T16:32:39.138Z,28.39
2022-08-23T16:35:07.259Z,28.30
2022-08-23T16:37:33.813Z,27.99
2022-08-23T16:40:00.399Z,28.34
2022-08-23T16:42:26.980Z,28.16
2022-08-23T16:44:53.563Z,28.55
2022-08-23T16:47:20.263Z,28.56
2022-08-23T16:49:47.150Z,28.97
2022-08-23T16:52:14.035Z,28.95
2022-08-23T16:54:40.870Z,28.93
2022-08-23T16:57:07.405Z,28.92
2022-08-23T16:59:40.196Z,29.08
2022-08-23T17:02:10.901Z,29.27
2022-08-23T17:04:38.035Z,29.30
2022-08-23T17:07:04.878Z,29.36
2022-08-23T17:09:31.444Z,29.30
2022-08-23T17:11:58.467Z,29.78
2022-08-23T17:14:26.006Z,29.62
2022-08-23T17:16:53.158Z,29.56
2022-08-23T17:19:19.821Z,29.37
2022-08-23T17:21:46.468Z,29.44
2022-08-23T17:24:13.078Z,29.66
2022-08-23T17:26:39.691Z,30.04
2022-08-23T17:29:07.345Z,30.42
2022-08-23T17:31:33.973Z,30.62
2022-08-23T17:34:03.689Z,30.99
2022-08-23T17:36:47.571Z,31.32
2022-08-23T17:39:18.934Z,31.10
2022-08-23T17:41:45.871Z,31.55
2022-08-23T17:44:13.289Z,31.65
2022-08-23T17:46:45.031Z,31.85
2022-08-23T17:49:13.436Z,32.29
2022-08-23T17:51:41.272Z,32.40
2022-08-23T17:54:10.023Z,32.77
2022-08-23T17:56:37.864Z,33.01
2022-08-23T17:59:07.304Z,33.16
2022-08-23T18:01:34.293Z,33.17
2022-08-23T18:04:00.916Z,33.33
2022-08-23T18:06:27.954Z,33.67
2022-08-23T18:08:55.544Z,33.80
2022-08-23T18:11:22.804Z,33.94
2022-08-23T18:13:49.535Z,34.37
2022-08-23T18:16:16.138Z,34.48
2022-08-23T18:18:43.281Z,34.63
2022-08-23T18:21:12.605Z,34.48
2022-08-23T18:23:41.391Z,34.84
2022-08-23T18:26:30.253Z,35.11
2022-08-23T18:28:57.891Z,35.34
2022-08-23T18:31:27.283Z,35.52
2022-08-23T18:34:00.218Z,35.72
2022-08-23T18:36:29.687Z,35.74
2022-08-23T18:38:57.139Z,36.03
2022-08-23T18:41:23.823Z,35.85
2022-08-23T18:43:51.238Z,36.11
2022-08-23T18:46:18.829Z,36.14
2022-08-23T18:48:53.214Z,36.25
2022-08-23T18:51:22.084Z,36.54
2022-08-23T18:53:48.739Z,36.75
2022-08-23T18:56:15.321Z,37.02
2022-08-23T18:58:41.835Z,37.26
2022-08-23T19:01:33.342Z,37.85
2022-08-23T19:04:03.963Z,37.67
2022-08-23T19:06:31.915Z,38.19
2022-08-23T19:09:00.821Z,38.30
2022-08-23T19:11:29.182Z,38.27
2022-08-23T19:13:56.387Z,38.30
2022-08-23T19:16:24.093Z,38.04
2022-08-23T19:18:51.155Z,38.25
2022-08-23T19:21:22.204Z,38.91
2022-08-23T19:23:52.344Z,38.95
2022-08-23T19:26:25.679Z,38.92
2022-08-23T19:28:52.641Z,39.33
2022-08-23T19:31:19.237Z,39.25
2022-08-23T19:33:45.831Z,39.38
2022-08-23T19:36:29.295Z,39.40
2022-08-23T19:38:58.828Z,40.32
2022-08-23T19:41:25.379Z,39.81
2022-08-23T19:43:52.104Z,40.33
2022-08-23T19:46:18.657Z,40.21
2022-08-23T19:48:47.436Z,40.29
2022-08-23T19:51:18.551Z,40.37
2022-08-23T19:54:03.584Z,40.57
2022-08-23T19:56:37.151Z,40.88
2022-08-23T19:59:08.753Z,40.99
2022-08-23T20:01:36.856Z,41.02
2022-08-23T20:04:05.020Z,41.37
2022-08-23T20:06:32.432Z,41.76
2022-08-23T20:08:59.692Z,42.03
2022-08-23T20:11:27.820Z,42.02
2022-08-23T20:13:56.490Z,42.19
2022-08-23T20:16:23.794Z,42.14
2022-08-23T20:18:51.430Z,42.67
2022-08-23T20:21:18.126Z,42.82
2022-08-23T20:24:00.933Z,42.86
2022-08-23T20:26:35.338Z,43.24
2022-08-23T20:29:04.733Z,43.26
2022-08-23T20:31:36.376Z,43.58
2022-08-23T20:34:08.865Z,43.50
2022-08-23T20:36:35.979Z,43.68
2022-08-23T20:39:04.098Z,43.92
2022-08-23T20:41:36.800Z,43.96
2022-08-23T20:44:05.707Z,44.04
2022-08-23T20:46:33.082Z,44.36
2022-08-23T20:48:59.900Z,44.42
2022-08-23T20:51:29.324Z,44.86
2022-08-23T20:53:56.554Z,44.85
2022-08-23T20:56:25.188Z,45.11
2022-08-23T20:58:52.463Z,45.06
2022-08-23T21:01:19.364Z,45.17
2022-08-23T21:03:46.058Z,45.30
2022-08-23T21:06:23.213Z,45.41
2022-08-23T21:08:55.882Z,45.58
2022-08-23T21:11:28.498Z,46.18
2022-08-23T21:13:57.170Z,46.18
2022-08-23T21:16:25.277Z,46.01
2022-08-23T21:18:53.938Z,46.52
2022-08-23T21:21:26.185Z,46.46
2022-08-23T21:23:55.195Z,46.55
2022-08-23T21:26:23.419Z,46.56
2022-08-23T21:28:52.118Z,46.96
2022-08-23T21:31:25.442Z,47.26
2022-08-23T21:33:54.454Z,47.61
2022-08-23T21:36:23.371Z,47.18
2022-08-23T21:38:50.319Z,47.15
2022-08-23T21:41:45.765Z,47.72
2022-08-23T21:44:18.729Z,47.67
2022-08-23T21:46:46.735Z,48.02
2022-08-23T21:49:20.820Z,47.95
2022-08-23T21:51:49.046Z,47.93
2022-08-23T21:54:18.205Z,48.03
2022-08-23T21:56:45.881Z,48.06
2022-08-23T21:59:17.106Z,47.77
2022-08-23T22:01:44.978Z,48.27
2022-08-23T22:04:14.517Z,48.39
2022-08-23T22:06:44.735Z,48.40
2022-08-23T22:09:15.773Z,48.29
2022-08-23T22:11:46.235Z,48.62
2022-08-23T22:14:21.454Z,48.76
2022-08-23T22:16:49.403Z,49.19
2022-08-23T22:19:22.338Z,49.39
2022-08-23T22:21:51.299Z,49.28
2022-08-23T22:24:24.678Z,48.82
2022-08-23T22:26:52.581Z,49.11
2022-08-23T22:29:19.271Z,49.48
2022-08-23T22:31:48.066Z,49.62
2022-08-23T22:34:15.071Z,50.04
2022-08-23T22:36:41.985Z,49.99
2022-08-23T22:39:08.691Z,50.05
2022-08-23T22:41:35.479Z,50.28
2022-08-23T22:44:03.381Z,50.44
2022-08-23T22:46:33.655Z,50.21
2022-08-23T22:49:01.812Z,50.10
2022-08-23T22:51:32.324Z,50.41
2022-08-23T22:54:08.923Z,50.90
2022-08-23T22:57:01.776Z,51.06
2022-08-23T22:59:32.785Z,50.83
2022-08-23T23:02:00.130Z,51.22
2022-08-23T23:04:31.396Z,51.26
2022-08-23T23:06:58.450Z,51.27
2022-08-23T23:09:26.352Z,51.27
2022-08-23T23:11:53.982Z,51.34
2022-08-23T23:14:22.310Z,51.51
2022-08-23T23:16:50.807Z,51.69
2022-08-23T23:19:36.301Z,51.91
2022-08-23T23:22:04.705Z,51.87
2022-08-23T23:24:38.476Z,51.63
2022-08-23T23:27:05.789Z,51.50
2022-08-23T23:29:32.874Z,51.56
2022-08-23T23:31:59.939Z,51.62
2022-08-23T23:34:28.146Z,51.84
2022-08-23T23:36:57.513Z,52.18
2022-08-23T23:39:25.665Z,52.48
2022-08-23T23:41:52.716Z,52.46
2022-08-23T23:44:22.443Z,52.23
2022-08-23T23:46:56.498Z,52.62
2022-08-23T23:49:23.584Z,52.64
2022-08-23T23:51:58.451Z,52.61
2022-08-23T23:54:25.570Z,52.79
2022-08-23T23:56:52.068Z,52.91
2022-08-23T23:59:19.879Z,53.13
